Time,TemperatureF,DewpointF,PressureIn,WindDirection,WindDirectionDegrees,WindSpeedMPH,WindSpeedGustMPH,Humidity,HourlyPrecipIn,Conditions,Clouds,dailyrainin,SoftwareType,DateUTC
2013-03-10 00:08:00,59.5,50.5,30.04,NE,45,4.7,-999.0,72,-99.99,,,0.00,Acu-Link.com,2013-03-10 05:08:00,
2013-03-10 00:24:00,59.7,51.4,30.03,NNE,22,5.8,-999.0,74,-99.99,,,0.00,Acu-Link.com,2013-03-10 05:24:00,
2013-03-10 00:39:00,59.4,51.1,30.04,NNE,22,5.8,-999.0,74,-99.99,,,0.00,Acu-Link.com,2013-03-10 05:39:00,
2013-03-10 00:54:00,59.2,51.3,30.03,NNE,22,5.3,-999.0,75,-99.99,,,0.00,Acu-Link.com,2013-03-10 05:54:00,
2013-03-10 01:09:00,59.0,51.1,30.02,North,0,4.7,-999.0,75,-99.99,,,0.00,Acu-Link.com,2013-03-10 06:09:00,
2013-03-10 01:24:00,58.8,51.3,30.02,NE,45,4.7,-999.0,76,-99.99,,,0.00,Acu-Link.com,2013-03-10 06:24:00,
2013-03-10 01:39:00,58.6,51.4,30.02,NE,45,4.2,-999.0,77,-99.99,,,0.00,Acu-Link.com,2013-03-10 06:39:00,
2013-03-10 01:55:00,58.3,51.5,30.01,NE,45,4.7,-999.0,78,-99.99,,,0.00,Acu-Link.com,2013-03-10 06:55:00,
2013-03-10 03:10:00,58.1,51.6,30.01,NE,45,4.2,-999.0,79,-99.99,,,0.00,Acu-Link.com,2013-03-10 07:10:00,
2013-03-10 03:26:00,58.1,51.6,30.00,NNE,22,5.3,-999.0,79,-99.99,,,0.00,Acu-Link.com,2013-03-10 07:26:00,
2013-03-10 03:41:00,57.9,51.4,29.99,North,0,5.3,-999.0,79,-99.99,,,0.00,Acu-Link.com,2013-03-10 07:41:00,
2013-03-10 03:57:00,57.9,51.8,29.99,NNE,22,3.7,-999.0,80,-99.99,,,0.00,Acu-Link.com,2013-03-10 07:57:00,
2013-03-10 04:12:00,57.7,51.6,29.99,NNE,22,3.2,-999.0,80,-99.99,,,0.00,Acu-Link.com,2013-03-10 08:12:00,
2013-03-10 04:27:00,58.3,52.5,30.00,ENE,67,3.2,-999.0,81,-99.99,,,0.00,Acu-Link.com,2013-03-10 08:27:00,
2013-03-10 04:42:00,58.3,52.2,29.99,NE,45,4.2,-999.0,80,-99.99,,,0.00,Acu-Link.com,2013-03-10 08:42:00,
2013-03-10 04:57:00,58.3,52.2,29.99,NNE,22,4.2,-999.0,80,-99.99,,,0.00,Acu-Link.com,2013-03-10 08:57:00,
2013-03-10 05:12:00,58.1,52.0,29.99,ENE,67,4.2,-999.0,80,-99.99,,,0.00,Acu-Link.com,2013-03-10 09:12:00,
2013-03-10 05:27:00,58.1,52.0,29.98,NE,45,7.3,-999.0,80,-99.99,,,0.00,Acu-Link.com,2013-03-10 09:27:00,
2013-03-10 05:43:00,57.9,51.8,29.99,NNE,22,4.2,-999.0,80,-99.99,,,0.00,Acu-Link.com,2013-03-10 09:43:00,
2013-03-10 05:58:00,57.7,51.9,29.99,NE,45,3.7,-999.0,81,-99.99,,,0.00,Acu-Link.com,2013-03-10 09:58:00,
2013-03-10 06:13:00,57.7,51.6,29.98,NE,45,5.3,-999.0,80,-99.99,,,0.00,Acu-Link.com,2013-03-10 10:13:00,
2013-03-10 06:28:00,57.9,51.8,29.99,NNE,22,4.7,-999.0,80,-99.99,,,0.00,Acu-Link.com,2013-03-10 10:28:00,
2013-03-10 06:43:00,57.9,51.8,30.00,NNE,22,3.7,-999.0,80,-99.99,,,0.00,Acu-Link.com,2013-03-10 10:43:00,
2013-03-10 06:58:00,57.6,51.5,30.01,NNE,22,3.2,-999.0,80,-99.99,,,0.00,Acu-Link.com,2013-03-10 10:58:00,
2013-03-10 07:14:00,57.6,51.8,30.01,North,0,3.2,-999.0,81,-99.99,,,0.00,Acu-Link.com,2013-03-10 11:14:00,
2013-03-10 07:29:00,57.6,51.8,30.01,NNE,22,3.2,-999.0,81,-99.99,,,0.00,Acu-Link.com,2013-03-10 11:29:00,
2013-03-10 07:44:00,57.9,51.8,30.01,ENE,67,3.2,-999.0,80,-99.99,,,0.00,Acu-Link.com,2013-03-10 11:44:00,
2013-03-10 07:59:00,58.6,52.4,30.01,NNE,22,3.2,-999.0,80,-99.99,,,0.00,Acu-Link.com,2013-03-10 11:59:00,
2013-03-10 08:15:00,58.8,52.0,30.02,NE,45,5.3,-999.0,78,-99.99,,,0.00,Acu-Link.com,2013-03-10 12:15:00,
2013-03-10 08:30:00,59.2,52.3,30.02,ENE,67,4.2,-999.0,78,-99.99,,,0.00,Acu-Link.com,2013-03-10 12:30:00,
2013-03-10 08:45:00,60.3,52.7,30.02,NNE,22,5.3,-999.0,76,-99.99,,,0.00,Acu-Link.com,2013-03-10 12:45:00,
2013-03-10 09:00:00,61.0,53.0,30.03,NNE,22,4.7,-999.0,75,-99.99,,,0.00,Acu-Link.com,2013-03-10 13:00:00,
2013-03-10 09:16:00,66.4,55.9,30.04,NNE,22,4.2,-999.0,69,-99.99,,,0.00,Acu-Link.com,2013-03-10 13:16:00,
2013-03-10 09:31:00,70.0,56.8,30.03,NE,45,4.7,-999.0,63,-99.99,,,0.00,Acu-Link.com,2013-03-10 13:31:00,
2013-03-10 09:46:00,70.5,56.8,30.04,NNE,22,5.3,-999.0,62,-99.99,,,0.00,Acu-Link.com,2013-03-10 13:46:00,
2013-03-10 10:01:00,68.5,55.0,30.03,NNE,22,5.8,-999.0,62,-99.99,,,0.00,Acu-Link.com,2013-03-10 14:01:00,
2013-03-10 10:16:00,70.7,56.1,30.04,ENE,67,7.3,-999.0,60,-99.99,,,0.00,Acu-Link.com,2013-03-10 14:16:00,
2013-03-10 10:31:00,71.4,56.3,30.04,NNE,22,9.4,-999.0,59,-99.99,,,0.00,Acu-Link.com,2013-03-10 14:31:00,
2013-03-10 10:47:00,71.2,55.7,30.03,ENE,67,9.9,-999.0,58,-99.99,,,0.00,Acu-Link.com,2013-03-10 14:47:00,
2013-03-10 11:02:00,71.6,55.5,30.04,East,90,6.3,-999.0,57,-99.99,,,0.00,Acu-Link.com,2013-03-10 15:02:00,
2013-03-10 11:17:00,73.2,56.1,30.03,East,90,8.9,-999.0,55,-99.99,,,0.00,Acu-Link.com,2013-03-10 15:17:00,
2013-03-10 11:32:00,72.3,54.7,30.02,East,90,9.4,-999.0,54,-99.99,,,0.00,Acu-Link.com,2013-03-10 15:32:00,
2013-03-10 11:47:00,72.9,54.8,30.00,East,90,13.5,-999.0,53,-99.99,,,0.00,Acu-Link.com,2013-03-10 15:47:00,
2013-03-10 12:02:00,73.8,56.1,29.99,ENE,67,12.5,-999.0,54,-99.99,,,0.00,Acu-Link.com,2013-03-10 16:02:00,
2013-03-10 12:17:00,74.7,56.4,29.98,East,90,17.6,-999.0,53,-99.99,,,0.00,Acu-Link.com,2013-03-10 16:17:00,
2013-03-10 12:32:00,74.7,55.9,29.98,East,90,8.3,-999.0,52,-99.99,,,0.00,Acu-Link.com,2013-03-10 16:32:00,
2013-03-10 12:47:00,73.9,55.7,29.98,ESE,112,14.5,-999.0,53,-99.99,,,0.00,Acu-Link.com,2013-03-10 16:47:00,
2013-03-10 13:03:00,75.2,55.8,29.98,ESE,112,14.0,-999.0,51,-99.99,,,0.00,Acu-Link.com,2013-03-10 17:03:00,
2013-03-10 13:18:00,76.1,56.6,29.97,ESE,112,14.5,-999.0,51,-99.99,,,0.00,Acu-Link.com,2013-03-10 17:18:00,
2013-03-10 13:33:00,76.3,56.3,29.97,ESE,112,8.3,-999.0,50,-99.99,,,0.00,Acu-Link.com,2013-03-10 17:33:00,
2013-03-10 13:48:00,76.1,56.1,29.97,ESE,112,8.9,-999.0,50,-99.99,,,0.00,Acu-Link.com,2013-03-10 17:48:00,
2013-03-10 14:03:00,77.9,56.6,29.97,East,90,10.4,-999.0,48,-99.99,,,0.00,Acu-Link.com,2013-03-10 18:03:00,
2013-03-10 14:18:00,77.9,56.6,29.96,ESE,112,9.4,-999.0,48,-99.99,,,0.00,Acu-Link.com,2013-03-10 18:18:00,
2013-03-10 14:33:00,77.7,56.4,29.95,ENE,67,6.8,-999.0,48,-99.99,,,0.00,Acu-Link.com,2013-03-10 18:33:00,
2013-03-10 14:48:00,77.0,55.2,29.95,East,90,11.9,-999.0,47,-99.99,,,0.00,Acu-Link.com,2013-03-10 18:48:00,
2013-03-10 15:03:00,77.9,56.0,29.94,SSE,157,10.9,-999.0,47,-99.99,,,0.00,Acu-Link.com,2013-03-10 19:03:00,
2013-03-10 15:18:00,77.5,56.8,29.95,SE,135,8.3,-999.0,49,-99.99,,,0.00,Acu-Link.com,2013-03-10 19:18:00,
2013-03-10 15:34:00,77.7,57.0,29.94,East,90,11.9,-999.0,49,-99.99,,,0.00,Acu-Link.com,2013-03-10 19:34:00,
2013-03-10 16:04:00,76.8,55.6,29.93,East,90,14.5,-999.0,48,-99.99,,,0.03,Acu-Link.com,2013-03-10 20:04:00,
2013-03-10 16:19:00,77.2,56.5,29.93,NE,45,6.8,-999.0,49,-99.99,,,0.03,Acu-Link.com,2013-03-10 20:19:00,
2013-03-10 16:34:00,77.0,55.8,29.93,East,90,8.3,-999.0,48,-99.99,,,0.03,Acu-Link.com,2013-03-10 20:34:00,
2013-03-10 16:50:00,76.8,56.7,29.93,ENE,67,10.4,-999.0,50,-99.99,,,0.03,Acu-Link.com,2013-03-10 20:50:00,
2013-03-10 17:05:00,76.3,56.3,29.92,ESE,112,5.8,-999.0,50,-99.99,,,0.03,Acu-Link.com,2013-03-10 21:05:00,
2013-03-10 17:20:00,76.1,55.5,29.92,East,90,6.8,-999.0,49,-99.99,,,0.03,Acu-Link.com,2013-03-10 21:20:00,
2013-03-10 17:35:00,75.9,55.9,29.92,ESE,112,9.4,-999.0,50,-99.99,,,0.03,Acu-Link.com,2013-03-10 21:35:00,
2013-03-10 17:50:00,75.2,55.8,29.92,East,90,10.9,-999.0,51,-99.99,,,0.03,Acu-Link.com,2013-03-10 21:50:00,
2013-03-10 18:05:00,74.5,55.2,29.92,NE,45,15.0,-999.0,51,-99.99,,,0.03,Acu-Link.com,2013-03-10 22:05:00,
2013-03-10 18:20:00,73.8,55.6,29.92,East,90,9.9,-999.0,53,-99.99,,,0.03,Acu-Link.com,2013-03-10 22:20:00,
2013-03-10 18:36:00,73.8,55.6,29.93,East,90,10.4,-999.0,53,-99.99,,,0.03,Acu-Link.com,2013-03-10 22:36:00,
2013-03-10 18:51:00,73.2,55.0,29.93,ESE,112,9.9,-999.0,53,-99.99,,,0.03,Acu-Link.com,2013-03-10 22:51:00,
2013-03-10 19:21:00,71.4,54.9,29.94,ESE,112,13.0,-999.0,56,-99.99,,,0.03,Acu-Link.com,2013-03-10 23:21:00,
2013-03-10 19:36:00,70.5,54.5,29.94,East,90,11.9,-999.0,57,-99.99,,,0.03,Acu-Link.com,2013-03-10 23:36:00,
2013-03-10 19:52:00,69.8,54.8,29.95,ESE,112,6.8,-999.0,59,-99.99,,,0.03,Acu-Link.com,2013-03-10 23:52:00,
2013-03-10 20:07:00,69.3,54.3,29.95,East,90,7.3,-999.0,59,-99.99,,,0.03,Acu-Link.com,2013-03-11 00:07:00,
2013-03-10 20:22:00,68.4,54.0,29.96,East,90,7.8,-999.0,60,-99.99,,,0.03,Acu-Link.com,2013-03-11 00:22:00,
2013-03-10 20:37:00,68.2,54.2,29.96,East,90,7.3,-999.0,61,-99.99,,,0.03,Acu-Link.com,2013-03-11 00:37:00,
2013-03-10 21:08:00,66.9,54.3,29.97,ESE,112,9.9,-999.0,64,-99.99,,,0.03,Acu-Link.com,2013-03-11 01:08:00,
2013-03-10 21:23:00,66.2,54.1,29.97,ENE,67,8.3,-999.0,65,-99.99,,,0.03,Acu-Link.com,2013-03-11 01:23:00,
2013-03-10 21:38:00,65.8,54.1,29.97,ESE,112,7.8,-999.0,66,-99.99,,,0.03,Acu-Link.com,2013-03-11 01:38:00,
2013-03-10 21:53:00,65.8,54.1,29.98,ESE,112,7.8,-999.0,66,-99.99,,,0.03,Acu-Link.com,2013-03-11 01:53:00,
2013-03-10 22:08:00,65.3,54.1,29.98,East,90,9.4,-999.0,67,-99.99,,,0.03,Acu-Link.com,2013-03-11 02:08:00,
2013-03-10 22:38:00,64.8,54.0,29.98,ESE,112,6.8,-999.0,68,-99.99,,,0.03,Acu-Link.com,2013-03-11 02:38:00,
2013-03-10 22:54:00,64.4,54.0,29.97,ESE,112,6.8,-999.0,69,-99.99,,,0.03,Acu-Link.com,2013-03-11 02:54:00,
2013-03-10 23:09:00,64.4,54.0,29.98,ESE,112,7.3,-999.0,69,-99.99,,,0.03,Acu-Link.com,2013-03-11 03:09:00,
2013-03-10 23:24:00,64.0,54.0,29.98,East,90,8.3,-999.0,70,-99.99,,,0.03,Acu-Link.com,2013-03-11 03:24:00,
2013-03-10 23:40:00,63.9,53.9,29.97,East,90,7.8,-999.0,70,-99.99,,,0.03,Acu-Link.com,2013-03-11 03:40:00,
2013-03-10 23:55:00,63.5,53.5,29.97,East,90,6.3,-999.0,70,-99.99,,,0.03,Acu-Link.com,2013-03-11 03:55:00,